Time;durP1;ratioP1;P1;durP2;ratioP2;P2;SDS_P1;SDS_P2;PMS_P1;PMS_P2;Temp;Humidity;BMP_temperature;BMP_pressure;BME280_temperature;BME280_humidity;BME280_pressure;Samples;Min_cycle;Max_cycle;Signal;HPM_P1;HPM_P2
2022/04/07 00:00:46;;;;;;;1.45;0.60;;;10.60;70.00;;;;;;20639082;28;20084;-79
2022/04/07 00:10:48;;;;;;;2.95;1.05;;;10.60;70.00;;;;;;20639108;28;20077;-78
2022/04/07 00:20:52;;;;;;;0.88;0.73;;;10.60;70.70;;;;;;20638163;28;20425;-79
2022/04/07 00:30:53;;;;;;;1.05;0.80;;;10.70;70.10;;;;;;20639018;28;20134;-78
2022/04/07 00:40:53;;;;;;;1.80;1.02;;;10.60;70.00;;;;;;20636718;28;20053;-78
2022/04/07 00:50:54;;;;;;;1.13;0.65;;;10.60;70.10;;;;;;20652246;28;20248;-79
2022/04/07 01:00:56;;;;;;;1.27;0.70;;;10.70;70.10;;;;;;20619782;28;20037;-78
2022/04/07 01:10:57;;;;;;;3.83;0.50;;;10.70;70.10;;;;;;20649561;28;20101;-78
2022/04/07 01:20:57;;;;;;;0.93;0.60;;;10.60;70.00;;;;;;20633812;28;20030;-78
2022/04/07 01:30:58;;;;;;;0.98;0.70;;;10.60;70.00;;;;;;20633585;28;20034;-79
2022/04/07 01:40:58;;;;;;;1.00;0.63;;;10.60;70.00;;;;;;20648433;28;20073;-78
2022/04/07 01:50:59;;;;;;;1.30;0.40;;;10.60;70.00;;;;;;20655262;28;20038;-78
2022/04/07 02:00:59;;;;;;;1.60;0.60;;;10.60;69.90;;;;;;20664375;28;20041;-79
2022/04/07 02:11:00;;;;;;;1.13;0.63;;;10.60;69.90;;;;;;20664449;28;20066;-77
2022/04/07 02:21:01;;;;;;;0.95;0.60;;;10.60;69.90;;;;;;21020647;23;20047;-78
2022/04/07 02:31:01;;;;;;;1.83;0.77;;;10.60;69.90;;;;;;20663515;28;20085;-77
2022/04/07 02:41:02;;;;;;;1.40;0.60;;;10.60;70.00;;;;;;20678482;28;20285;-81
2022/04/07 02:51:03;;;;;;;1.85;0.63;;;10.60;70.00;;;;;;20661061;28;20077;-79
2022/04/07 03:01:03;;;;;;;1.48;0.70;;;10.60;70.00;;;;;;20676441;28;20049;-78
2022/04/07 03:11:05;;;;;;;1.52;1.00;;;10.60;70.00;;;;;;20660468;28;20380;-78
2022/04/07 03:21:06;;;;;;;0.50;0.50;;;10.60;70.00;;;;;;20675837;28;20042;-78
2022/04/07 03:31:06;;;;;;;1.52;0.88;;;10.60;70.10;;;;;;20658152;28;20038;-78
2022/04/07 03:41:07;;;;;;;0.50;0.40;;;10.60;70.20;;;;;;20658043;28;20030;-78
2022/04/07 03:51:08;;;;;;;1.05;0.52;;;10.70;70.30;;;;;;20657324;28;20129;-80
2022/04/07 04:01:09;;;;;;;0.43;0.43;;;10.60;70.30;;;;;;20672655;28;20052;-77
2022/04/07 04:11:12;;;;;;;0.52;0.43;;;10.60;70.40;;;;;;20654158;28;20400;-79
2022/04/07 04:21:12;;;;;;;0.30;0.30;;;10.60;70.50;;;;;;20670183;28;20049;-79
2022/04/07 04:31:13;;;;;;;0.95;0.50;;;10.60;70.50;;;;;;20670170;28;20376;-79
2022/04/07 04:41:14;;;;;;;0.80;0.35;;;10.60;70.50;;;;;;20669348;28;20540;-78
2022/04/07 04:51:14;;;;;;;1.38;0.40;;;10.70;70.50;;;;;;20668644;28;20045;-77
2022/04/07 05:01:15;;;;;;;0.65;0.43;;;10.60;70.50;;;;;;20651355;28;20077;-79
2022/04/07 05:11:16;;;;;;;0.50;0.30;;;10.60;70.40;;;;;;20651056;28;20293;-83
2022/04/07 05:21:16;;;;;;;0.47;0.40;;;10.70;70.40;;;;;;20667110;28;20074;-80
2022/04/07 05:31:17;;;;;;;0.75;0.50;;;10.70;70.40;;;;;;20648851;28;20061;-79
2022/04/07 05:51:35;;;;;;;1.17;0.32;;;10.70;70.30;;;;;;20779502;22;20081;-77
2022/04/07 06:01:35;;;;;;;0.40;0.35;;;10.60;70.20;;;;;;20697184;28;20117;-80
2022/04/07 06:11:36;;;;;;;0.57;0.30;;;10.60;70.10;;;;;;20712632;28;20096;-80
2022/04/07 06:21:36;;;;;;;0.45;0.30;;;10.60;70.00;;;;;;20695297;28;20065;-81
2022/04/07 06:31:37;;;;;;;0.90;0.60;;;10.70;70.10;;;;;;20711501;28;20173;-79
2022/04/07 06:41:37;;;;;;;1.80;0.30;;;10.70;70.00;;;;;;20724727;28;20026;-78
2022/04/07 06:51:38;;;;;;;0.40;0.38;;;10.70;70.00;;;;;;20742393;28;20399;-78
2022/04/07 07:01:39;;;;;;;0.35;0.30;;;10.70;70.00;;;;;;20725988;28;20304;-78
2022/04/07 07:11:39;;;;;;;0.80;0.30;;;10.70;69.90;;;;;;20725424;28;20075;-80
2022/04/07 07:21:40;;;;;;;0.63;0.50;;;10.70;69.90;;;;;;20708443;28;20034;-78
2022/04/07 07:31:40;;;;;;;0.20;0.20;;;10.70;69.80;;;;;;20723270;28;20065;-79
2022/04/07 07:41:41;;;;;;;0.43;0.30;;;10.70;69.80;;;;;;20707311;28;20498;-78
2022/04/07 07:51:42;;;;;;;0.20;0.20;;;10.70;69.70;;;;;;20704572;28;20519;-77
2022/04/07 08:01:43;;;;;;;0.60;0.25;;;10.80;69.60;;;;;;20704383;28;20180;-79
2022/04/07 08:11:44;;;;;;;1.13;0.40;;;10.80;69.60;;;;;;20687474;28;20184;-78
2022/04/07 08:21:44;;;;;;;0.20;0.20;;;10.80;69.60;;;;;;20703147;28;20472;-79
2022/04/07 08:31:45;;;;;;;1.00;0.30;;;10.80;69.70;;;;;;20734995;28;20041;-78
2022/04/07 08:41:47;;;;;;;0.47;0.28;;;10.80;69.50;;;;;;20700498;28;20108;-78
2022/04/07 08:51:49;;;;;;;0.20;0.20;;;10.80;69.50;;;;;;20717715;28;20388;-80
2022/04/07 09:01:50;;;;;;;0.38;0.20;;;10.80;69.50;;;;;;20699766;28;20034;-79
2022/04/07 09:11:54;;;;;;;0.63;0.52;;;10.80;69.50;;;;;;20698670;28;20045;-80
2022/04/07 09:22:30;;;;;;;0.20;0.20;;;10.80;69.40;;;;;;20683630;28;20091;-79
2022/04/07 09:32:31;;;;;;;1.30;0.32;;;10.80;69.40;;;;;;20695256;28;20068;-78
2022/04/07 09:42:33;;;;;;;0.52;0.22;;;10.80;70.00;;;;;;20698797;28;20038;-78
2022/04/07 09:52:34;;;;;;;0.38;0.32;;;10.80;69.40;;;;;;20696396;28;20049;-78
2022/04/07 10:02:35;;;;;;;0.63;0.22;;;10.80;69.40;;;;;;20713224;28;20460;-79
2022/04/07 10:12:35;;;;;;;0.47;0.30;;;10.80;69.40;;;;;;20703483;28;20038;-79
2022/04/07 10:22:57;;;;;;;0.32;0.20;;;10.90;69.50;;;;;;20711405;28;20045;-78
2022/04/07 10:32:58;;;;;;;1.95;0.32;;;10.80;69.40;;;;;;20727901;28;20361;-78
2022/04/07 10:43:14;;;;;;;0.47;0.25;;;10.90;69.50;;;;;;20710786;28;20120;-82
2022/04/07 10:53:30;;;;;;;0.20;0.20;;;10.90;69.60;;;;;;20742124;28;20465;-79
2022/04/07 11:03:30;;;;;;;0.20;0.20;;;10.90;69.70;;;;;;20759650;28;20041;-79
2022/04/07 11:13:44;;;;;;;0.47;0.22;;;10.90;69.70;;;;;;20724061;28;20042;-78
2022/04/07 11:23:56;;;;;;;0.40;0.30;;;10.90;69.70;;;;;;20707278;28;20038;-79
2022/04/07 11:33:56;;;;;;;0.43;0.22;;;11.00;69.80;;;;;;20691400;28;20388;-79
2022/04/07 11:43:57;;;;;;;0.22;0.10;;;10.90;70.50;;;;;;20689624;28;20116;-79
2022/04/07 11:53:58;;;;;;;0.38;0.20;;;10.90;71.00;;;;;;20736816;28;20116;-78
2022/04/07 12:04:03;;;;;;;0.22;0.20;;;10.90;71.00;;;;;;20719890;28;20034;-78
2022/04/07 12:14:04;;;;;;;0.20;0.15;;;10.80;71.00;;;;;;20687517;28;20092;-77
2022/04/07 12:24:06;;;;;;;0.20;0.20;;;10.80;71.00;;;;;;20686810;28;20033;-79
2022/04/07 12:34:08;;;;;;;0.40;0.20;;;10.80;71.00;;;;;;20733200;28;20038;-79
2022/04/07 12:44:10;;;;;;;0.65;0.30;;;10.80;71.00;;;;;;20717936;28;20384;-80
2022/04/07 12:54:12;;;;;;;0.40;0.20;;;10.80;71.00;;;;;;20684513;28;20041;-80
2022/04/07 13:04:13;;;;;;;2.85;0.20;;;10.90;71.10;;;;;;20683292;28;20069;-78
2022/04/07 13:14:13;;;;;;;0.55;0.20;;;10.80;71.20;;;;;;20698561;28;20116;-80
2022/04/07 13:24:14;;;;;;;0.30;0.30;;;10.90;71.40;;;;;;20713424;28;20062;-80
2022/04/07 13:34:15;;;;;;;0.20;0.15;;;10.80;71.50;;;;;;20714706;28;20355;-80
2022/04/07 13:44:16;;;;;;;0.13;0.10;;;10.90;71.60;;;;;;20729475;28;20046;-81
2022/04/07 13:54:17;;;;;;;2.30;0.20;;;10.90;71.70;;;;;;20712283;28;20041;-80
2022/04/07 14:04:17;;;;;;;0.30;0.30;;;10.90;71.50;;;;;;20714067;28;20289;-79
2022/04/07 14:14:18;;;;;;;0.20;0.20;;;10.90;71.30;;;;;;20712399;28;20045;-79
2022/04/07 14:24:18;;;;;;;0.70;0.40;;;11.00;71.20;;;;;;20680247;28;20038;-79
2022/04/07 14:34:19;;;;;;;0.40;0.40;;;11.00;71.00;;;;;;20726528;28;20117;-79
2022/04/07 14:44:19;;;;;;;0.80;0.35;;;11.10;70.90;;;;;;20677973;28;20045;-79
2022/04/07 14:54:20;;;;;;;0.80;0.40;;;11.10;70.70;;;;;;20726437;28;20038;-80
2022/04/07 15:04:21;;;;;;;0.85;0.20;;;11.20;70.30;;;;;;20724956;28;20044;-79
2022/04/07 15:14:21;;;;;;;2.28;0.30;;;11.20;70.00;;;;;;20724477;28;20069;-80
2022/04/07 15:24:22;;;;;;;0.32;0.30;;;11.30;69.70;;;;;;20690888;28;20036;-78
2022/04/07 15:34:22;;;;;;;4.30;0.43;;;11.30;69.50;;;;;;20690364;28;20042;-81
2022/04/07 15:44:23;;;;;;;1.92;0.70;;;11.30;69.30;;;;;;20706206;28;20443;-80
2022/04/07 15:54:23;;;;;;;6.63;1.85;;;11.20;69.00;;;;;;20690520;28;20037;-79
2022/04/07 16:04:24;;;;;;;2.88;1.10;;;11.30;68.30;;;;;;20704692;28;20061;-80
2022/04/07 16:14:25;;;;;;;0.30;0.30;;;11.40;67.60;;;;;;20702932;28;20034;-81
2022/04/07 16:24:25;;;;;;;4.50;0.60;;;11.30;67.70;;;;;;20718450;28;20029;-78
2022/04/07 16:34:27;;;;;;;1.48;0.38;;;11.30;66.90;;;;;;20701708;28;20296;-79
2022/04/07 16:44:27;;;;;;;3.00;0.45;;;11.30;66.70;;;;;;20685608;28;20045;-79
2022/04/07 16:54:28;;;;;;;3.17;0.50;;;11.30;66.40;;;;;;20701189;28;20135;-79
2022/04/07 17:04:29;;;;;;;1.08;0.47;;;11.30;66.30;;;;;;20700406;28;20907;-79
2022/04/07 17:14:29;;;;;;;4.93;1.13;;;11.20;66.10;;;;;;20730676;28;20393;-79
2022/04/07 17:24:30;;;;;;;2.20;0.50;;;11.20;66.00;;;;;;20683468;28;20040;-79
2022/04/07 17:34:30;;;;;;;4.53;0.60;;;11.10;66.60;;;;;;20729724;28;20042;-79
2022/04/07 17:44:32;;;;;;;0.87;0.43;;;11.10;67.00;;;;;;20715747;28;20392;-79
2022/04/07 17:54:32;;;;;;;0.63;0.28;;;11.10;67.50;;;;;;20697349;28;20300;-78
2022/04/07 18:04:33;;;;;;;0.85;0.50;;;11.00;67.80;;;;;;20697453;28;20446;-77
2022/04/07 18:14:34;;;;;;;1.35;0.40;;;11.00;68.10;;;;;;20697362;28;20038;-77
2022/04/07 18:24:36;;;;;;;2.72;0.47;;;11.00;68.30;;;;;;20711419;28;20143;-78
2022/04/07 18:34:37;;;;;;;1.08;0.40;;;11.00;68.50;;;;;;20735917;28;20080;-78
2022/04/07 18:44:37;;;;;;;3.43;0.60;;;10.90;68.60;;;;;;20743298;28;20064;-78
2022/04/07 18:54:38;;;;;;;1.30;0.45;;;10.90;68.70;;;;;;20759025;28;20351;-78
2022/04/07 19:04:38;;;;;;;1.73;0.30;;;10.90;68.80;;;;;;20741664;28;20407;-78
2022/04/07 19:14:39;;;;;;;1.48;0.45;;;11.00;69.00;;;;;;20741284;28;20041;-80
2022/04/07 19:24:42;;;;;;;0.73;0.32;;;10.90;69.10;;;;;;20692385;28;20057;-78
2022/04/07 19:34:42;;;;;;;0.68;0.22;;;10.90;69.10;;;;;;20723640;28;20041;-78
2022/04/07 19:44:43;;;;;;;0.25;0.20;;;10.90;69.10;;;;;;20721515;28;20041;-78
2022/04/07 19:54:43;;;;;;;0.50;0.38;;;10.80;69.10;;;;;;20737552;28;20045;-78
2022/04/07 20:04:49;;;;;;;1.20;0.50;;;10.90;69.20;;;;;;20721595;28;20476;-78
2022/04/07 20:14:53;;;;;;;0.63;0.40;;;10.80;69.20;;;;;;20721414;28;20042;-79
2022/04/07 20:24:53;;;;;;;0.43;0.30;;;10.80;69.10;;;;;;20722057;28;20065;-78
2022/04/07 20:34:56;;;;;;;1.17;1.08;;;10.80;69.20;;;;;;20734928;28;20064;-78
2022/04/07 20:44:56;;;;;;;0.75;0.40;;;10.80;69.10;;;;;;20701871;28;20045;-78
2022/04/07 20:54:57;;;;;;;0.32;0.20;;;10.80;69.70;;;;;;20717036;28;20487;-78
2022/04/07 21:04:59;;;;;;;0.50;0.20;;;10.80;69.10;;;;;;20732389;28;20076;-78
2022/04/07 21:15:00;;;;;;;0.55;0.40;;;10.80;69.00;;;;;;20731738;28;20038;-77
2022/04/07 21:25:01;;;;;;;1.00;0.47;;;10.80;68.90;;;;;;20749403;28;20145;-78
2022/04/07 21:35:01;;;;;;;1.02;0.32;;;10.80;68.70;;;;;;20683230;28;20048;-79
2022/04/07 21:45:02;;;;;;;1.60;0.30;;;10.80;68.60;;;;;;20696789;28;20092;-79
2022/04/07 21:55:03;;;;;;;2.20;0.30;;;10.70;68.50;;;;;;20682291;28;20308;-78
2022/04/07 22:05:04;;;;;;;0.20;0.20;;;10.70;68.40;;;;;;20729558;28;20461;-78
2022/04/07 22:15:05;;;;;;;0.32;0.32;;;10.80;68.40;;;;;;20696941;28;20042;-80
2022/04/07 22:25:06;;;;;;;0.38;0.20;;;10.70;68.30;;;;;;20745077;28;20030;-78
2022/04/07 22:35:07;;;;;;;1.08;0.25;;;10.70;68.30;;;;;;20695160;28;20040;-79
2022/04/07 22:45:09;;;;;;;1.92;0.45;;;10.70;68.20;;;;;;20710429;28;20041;-79
2022/04/07 22:55:10;;;;;;;1.30;0.20;;;10.70;68.20;;;;;;20727066;28;20396;-80
2022/04/07 23:05:12;;;;;;;0.20;0.20;;;10.70;68.10;;;;;;20709312;28;20177;-78
2022/04/07 23:15:13;;;;;;;0.57;0.40;;;10.60;68.10;;;;;;20723550;28;20480;-79
2022/04/07 23:25:13;;;;;;;0.50;0.20;;;10.60;68.10;;;;;;20740529;28;20045;-76
2022/04/07 23:35:14;;;;;;;1.52;0.38;;;10.60;68.10;;;;;;20723080;28;20084;-79
2022/04/07 23:45:14;;;;;;;1.05;0.40;;;10.70;68.20;;;;;;20724109;28;20133;-80
2022/04/07 23:55:15;;;;;;;2.13;0.30;;;10.60;68.20;;;;;;20705793;28;20042;-79
